Time;durP1;ratioP1;P1;durP2;ratioP2;P2;SDS_P1;SDS_P2;PMS_P1;PMS_P2;Temp;Humidity;BMP_temperature;BMP_pressure;BME280_temperature;BME280_humidity;BME280_pressure;Samples;Min_cycle;Max_cycle;Signal;HPM_P1;HPM_P2
2023/12/27 00:03:07;;;;;;;0.80;0.40;;;;;;;5.44;100.00;150037.66;13109145;22;20022;-83
2023/12/27 00:08:09;;;;;;;1.10;0.32;;;;;;;5.42;100.00;150031.25;13082199;22;20019;-83
2023/12/27 00:13:11;;;;;;;1.45;0.95;;;;;;;5.54;100.00;150062.13;13101713;22;20019;-83
2023/12/27 00:18:17;;;;;;;1.35;0.40;;;;;;;5.55;100.00;150065.97;13101056;22;20035;-81
2023/12/27 00:23:19;;;;;;;1.08;0.40;;;;;;;5.44;100.00;150037.66;13102301;22;20042;-83
2023/12/27 00:28:21;;;;;;;1.35;0.30;;;;;;;5.49;100.00;150050.56;13100207;22;20074;-82
2023/12/27 00:33:23;;;;;;;1.60;0.50;;;;;;;5.46;100.00;150041.53;13090364;22;20015;-82
2023/12/27 00:38:25;;;;;;;1.13;0.40;;;;;;;5.30;100.00;150002.94;13046359;22;20019;-82
2023/12/27 00:43:27;;;;;;;2.33;0.40;;;;;;;5.09;100.00;149947.66;13043567;22;20023;-81
2023/12/27 00:48:29;;;;;;;1.63;0.80;;;;;;;5.26;100.00;149992.63;13041996;22;20508;-83
2023/12/27 00:53:31;;;;;;;1.50;0.30;;;;;;;5.12;100.00;149955.38;13042118;22;20029;-83
2023/12/27 00:58:34;;;;;;;0.75;0.30;;;;;;;5.28;100.00;149997.81;13069817;22;20049;-82
2023/12/27 01:03:35;;;;;;;1.20;0.20;;;;;;;5.21;100.00;149979.78;13042764;22;20023;-82
2023/12/27 01:08:37;;;;;;;0.65;0.30;;;;;;;5.36;100.00;150017.13;13047277;22;20026;-82
2023/12/27 01:13:39;;;;;;;6.72;0.30;;;;;;;5.36;99.18;150017.13;13068204;22;20027;-82
2023/12/27 01:18:41;;;;;;;1.08;0.30;;;;;;;5.34;98.99;150010.66;13075418;22;20015;-82
2023/12/27 01:23:44;;;;;;;0.38;0.30;;;;;;;5.26;98.90;149992.63;13070934;22;20015;-82
2023/12/27 01:28:46;;;;;;;0.65;0.30;;;;;;;5.10;99.35;149951.53;13040176;22;20349;-82
2023/12/27 01:33:47;;;;;;;2.17;0.20;;;;;;;5.12;98.14;149956.66;13069731;22;20019;-82
2023/12/27 01:38:49;;;;;;;2.13;0.80;;;;;;;4.85;99.15;149887.25;13046091;22;20027;-81
2023/12/27 01:43:51;;;;;;;0.55;0.40;;;;;;;4.86;98.05;149891.09;13040206;22;20022;-82
2023/12/27 01:48:53;;;;;;;5.70;0.75;;;;;;;4.70;98.86;149851.28;13039126;22;20023;-82
2023/12/27 01:53:58;;;;;;;2.83;0.45;;;;;;;4.73;97.63;149857.66;13038366;22;20518;-83
2023/12/27 01:59:00;;;;;;;1.45;0.40;;;;;;;4.51;99.24;149803.69;13038778;22;20396;-83
2023/12/27 02:04:02;;;;;;;1.88;0.38;;;;;;;4.42;98.90;149780.56;13039794;22;20023;-82
2023/12/27 02:09:04;;;;;;;4.43;0.85;;;;;;;4.62;96.54;149829.41;13040006;22;20026;-83
2023/12/27 02:14:07;;;;;;;2.67;0.70;;;;;;;4.74;96.12;149860.28;13074067;22;20354;-83
2023/12/27 02:19:13;;;;;;;0.73;0.30;;;;;;;4.50;96.95;149801.13;13068639;22;21390;-83
2023/12/27 02:24:18;;;;;;;1.03;0.30;;;;;;;4.37;98.31;149767.72;13041213;22;20095;-82
2023/12/27 02:29:20;;;;;;;0.95;0.30;;;;;;;4.22;99.04;149729.19;13043663;22;20022;-83
2023/12/27 02:34:23;;;;;;;1.92;0.25;;;;;;;4.12;100.00;149703.47;13041952;22;20329;-82
2023/12/27 02:39:25;;;;;;;1.73;0.30;;;;;;;4.15;99.99;149711.19;13043183;22;20039;-82
2023/12/27 02:44:27;;;;;;;5.85;0.20;;;;;;;3.89;100.00;149645.69;13042553;22;20046;-82
2023/12/27 02:49:29;;;;;;;1.05;0.25;;;;;;;3.83;100.00;149631.56;13072343;22;20041;-81
2023/12/27 02:54:31;;;;;;;0.85;0.20;;;;;;;3.88;100.00;149644.41;13042762;22;20050;-82
2023/12/27 02:59:33;;;;;;;1.38;0.22;;;;;;;3.72;100.00;149603.34;13072854;22;20419;-82
2023/12/27 03:04:35;;;;;;;1.77;0.30;;;;;;;3.60;100.00;149572.50;13043245;22;20361;-82
2023/12/27 03:09:36;;;;;;;1.75;0.30;;;;;;;3.30;100.00;149498.03;13045640;22;20025;-82
2023/12/27 03:14:38;;;;;;;3.78;0.45;;;;;;;3.61;100.00;149576.34;13080355;22;20015;-83
2023/12/27 03:19:40;;;;;;;5.97;0.28;;;;;;;3.63;100.00;149581.50;13073878;22;20030;-82
2023/12/27 03:24:43;;;;;;;2.17;0.43;;;;;;;3.74;100.00;149609.72;13043995;22;20043;-83
2023/12/27 03:29:46;;;;;;;2.45;0.45;;;;;;;3.83;98.70;149631.56;13047642;22;20019;-83
2023/12/27 03:34:48;;;;;;;1.25;0.20;;;;;;;3.83;97.36;149630.28;13040541;22;20027;-83
2023/12/27 03:39:51;;;;;;;1.15;0.22;;;;;;;3.76;96.45;149613.56;13014266;22;20077;-82
2023/12/27 03:44:53;;;;;;;2.45;0.68;;;;;;;3.71;96.93;149600.72;13069179;22;20038;-82
2023/12/27 03:49:55;;;;;;;0.30;0.20;;;;;;;3.46;97.77;149537.84;13068822;22;20022;-83
2023/12/27 03:54:56;;;;;;;0.68;0.25;;;;;;;3.38;97.96;149518.56;13069346;22;20022;-81
2023/12/27 03:59:58;;;;;;;0.80;0.28;;;;;;;3.27;97.46;149491.59;13067960;22;20026;-82
2023/12/27 04:05:00;;;;;;;1.00;0.30;;;;;;;3.13;97.70;149454.38;13068978;22;20085;-82
2023/12/27 04:10:03;;;;;;;1.75;0.30;;;;;;;3.36;96.69;149513.41;13041319;22;20023;-83
2023/12/27 04:15:05;;;;;;;2.05;0.40;;;;;;;3.25;95.36;149485.19;13067759;22;20402;-82
2023/12/27 04:20:07;;;;;;;2.38;0.40;;;;;;;3.33;95.21;149505.75;13067618;22;20015;-83
2023/12/27 04:25:09;;;;;;;1.30;0.50;;;;;;;3.29;95.15;149496.75;13041689;22;20019;-83
2023/12/27 04:30:11;;;;;;;1.38;0.40;;;;;;;3.11;96.07;149449.25;13038460;22;20019;-81
2023/12/27 04:35:13;;;;;;;1.70;0.35;;;;;;;3.00;96.94;149422.28;13044531;22;20022;-82
2023/12/27 04:40:15;;;;;;;1.90;0.45;;;;;;;3.00;96.43;149423.56;13043064;22;20023;-83
2023/12/27 04:45:17;;;;;;;1.60;0.30;;;;;;;3.04;95.84;149432.56;13069110;22;20012;-82
2023/12/27 04:50:19;;;;;;;3.83;0.60;;;;;;;2.89;97.46;149395.34;13038959;22;20026;-83
2023/12/27 04:55:20;;;;;;;0.82;0.30;;;;;;;2.56;100.00;149310.66;13071082;22;20019;-82
2023/12/27 05:00:23;;;;;;;0.73;0.45;;;;;;;2.51;100.00;149299.09;13056334;22;20023;-81
2023/12/27 05:05:25;;;;;;;1.40;0.35;;;;;;;2.52;100.00;149301.66;13023310;22;20015;-82
2023/12/27 05:10:27;;;;;;;0.38;0.38;;;;;;;2.45;100.00;149283.72;13069700;22;20022;-82
2023/12/27 05:15:28;;;;;;;2.30;0.40;;;;;;;2.47;100.00;149290.13;13044825;22;20008;-82
2023/12/27 05:20:31;;;;;;;1.35;0.32;;;;;;;2.51;100.00;149299.09;13066919;22;20026;-82
2023/12/27 05:25:32;;;;;;;2.30;0.50;;;;;;;2.41;100.00;149274.75;13067946;22;20011;-81
2023/12/27 05:30:34;;;;;;;1.48;0.60;;;;;;;2.27;100.00;149238.84;13067940;22;20019;-82
2023/12/27 05:35:36;;;;;;;1.75;0.50;;;;;;;2.13;100.00;149202.94;13066400;22;20019;-82
2023/12/27 05:40:38;;;;;;;0.80;0.60;;;;;;;2.26;100.00;149236.28;13066700;22;20472;-81
2023/12/27 05:45:39;;;;;;;0.57;0.50;;;;;;;2.20;100.00;149220.84;13040916;22;20066;-83
2023/12/27 05:50:41;;;;;;;3.30;1.08;;;;;;;2.20;100.00;149222.13;13067865;22;20445;-82
2023/12/27 05:55:43;;;;;;;2.25;1.35;;;;;;;2.38;100.00;149267.03;13067567;22;20018;-83
2023/12/27 06:00:45;;;;;;;2.55;1.27;;;;;;;2.16;100.00;149211.88;13066493;22;20015;-83
2023/12/27 06:05:47;;;;;;;1.35;1.08;;;;;;;2.10;100.00;149196.50;13065644;22;20011;-83
2023/12/27 06:10:49;;;;;;;3.33;1.20;;;;;;;2.36;100.00;149260.63;13039677;22;20026;-83
2023/12/27 06:15:50;;;;;;;2.38;0.93;;;;;;;2.27;100.00;149240.13;13039718;22;20426;-82
2023/12/27 06:20:52;;;;;;;0.93;0.88;;;;;;;2.31;100.00;149249.09;13065856;22;20098;-82
2023/12/27 06:25:55;;;;;;;1.20;0.60;;;;;;;2.45;100.00;149285.00;13067135;22;20371;-82
2023/12/27 06:30:57;;;;;;;2.35;0.73;;;;;;;2.37;100.00;149263.19;13064741;22;20015;-83
2023/12/27 06:35:59;;;;;;;1.48;0.52;;;;;;;2.36;100.00;149260.63;13065133;22;20033;-82
2023/12/27 06:41:03;;;;;;;3.90;0.93;;;;;;;2.33;100.00;149254.22;13042966;22;20461;-82
2023/12/27 06:46:05;;;;;;;1.92;0.55;;;;;;;2.39;100.00;149268.31;13042189;22;20045;-83
2023/12/27 06:51:07;;;;;;;1.63;0.60;;;;;;;2.19;100.00;149219.56;13040135;22;20392;-82
2023/12/27 06:56:10;;;;;;;1.25;0.63;;;;;;;2.06;100.00;149186.22;13066310;22;20341;-82
2023/12/27 07:01:14;;;;;;;0.40;0.40;;;;;;;1.88;100.00;149141.34;13052363;22;20019;-83
2023/12/27 07:06:17;;;;;;;1.15;0.60;;;;;;;1.88;100.00;149140.06;13051065;22;20409;-82
2023/12/27 07:11:19;;;;;;;1.23;0.45;;;;;;;1.84;100.00;149131.09;13078463;22;20041;-83
2023/12/27 07:16:22;;;;;;;0.90;0.52;;;;;;;1.78;100.00;149115.72;13085543;22;20094;-84
2023/12/27 07:21:24;;;;;;;0.77;0.70;;;;;;;1.66;100.00;149084.94;13083934;22;20031;-82
2023/12/27 07:26:26;;;;;;;3.05;2.05;;;;;;;1.66;100.00;149084.94;13088353;22;20038;-83
2023/12/27 07:31:28;;;;;;;3.28;1.13;;;;;;;1.64;100.00;149081.13;13058164;22;20019;-83
2023/12/27 07:36:30;;;;;;;1.73;1.05;;;;;;;1.46;100.00;149036.25;13054400;22;20025;-82
2023/12/27 07:41:32;;;;;;;2.47;1.10;;;;;;;1.39;100.00;149018.28;13054588;22;20046;-84
2023/12/27 07:46:34;;;;;;;2.70;1.20;;;;;;;1.32;100.00;148999.06;13084241;22;20015;-82
2023/12/27 07:51:37;;;;;;;2.38;0.98;;;;;;;1.72;100.00;149100.31;13049788;22;20066;-84
2023/12/27 07:56:39;;;;;;;3.08;1.10;;;;;;;1.69;100.00;149093.94;13084567;22;20011;-83
2023/12/27 08:01:42;;;;;;;3.08;1.15;;;;;;;1.63;100.00;149077.25;13030015;22;20026;-83
2023/12/27 08:06:45;;;;;;;4.90;1.20;;;;;;;1.52;100.00;149051.63;13055141;22;20045;-85
2023/12/27 08:11:49;;;;;;;1.38;1.00;;;;;;;1.51;100.00;149049.06;13082384;22;20468;-84
2023/12/27 08:16:53;;;;;;;2.75;1.33;;;;;;;1.75;100.00;149108.03;13052564;22;20433;-84
2023/12/27 08:21:55;;;;;;;3.22;1.70;;;;;;;1.96;100.00;149161.88;13045878;22;20390;-84
2023/12/27 08:26:56;;;;;;;2.30;1.70;;;;;;;1.77;100.00;149114.44;13072106;22;20015;-82
2023/12/27 08:31:58;;;;;;;2.92;1.65;;;;;;;1.83;100.00;149128.53;13044957;22;20020;-82
2023/12/27 08:37:00;;;;;;;2.47;1.60;;;;;;;1.84;100.00;149129.81;13069945;22;20056;-83
2023/12/27 08:42:02;;;;;;;4.40;2.25;;;;;;;1.76;100.00;149111.84;13071303;22;20449;-82
2023/12/27 08:47:04;;;;;;;3.40;1.95;;;;;;;1.87;100.00;149137.53;13074008;22;20378;-82
2023/12/27 08:52:06;;;;;;;3.42;1.70;;;;;;;1.95;100.00;149159.31;13060198;22;20102;-81
2023/12/27 08:57:07;;;;;;;3.75;1.13;;;;;;;2.13;100.00;149204.22;13074334;22;20068;-82
2023/12/27 09:02:15;;;;;;;1.95;1.35;;;;;;;2.26;100.00;149236.28;13076056;22;20079;-81
2023/12/27 09:07:17;;;;;;;1.73;1.45;;;;;;;2.35;100.00;149258.09;13045800;22;20047;-82
2023/12/27 09:12:19;;;;;;;2.22;1.30;;;;;;;2.52;100.00;149302.97;13072571;22;20015;-83
2023/12/27 09:17:21;;;;;;;2.65;1.25;;;;;;;2.73;100.00;149355.56;13046231;22;20035;-81
2023/12/27 09:22:22;;;;;;;2.30;1.27;;;;;;;2.86;100.00;149386.38;13070028;22;20453;-82
2023/12/27 09:27:27;;;;;;;4.40;1.58;;;;;;;3.04;100.00;149433.84;13053605;22;20011;-82
2023/12/27 09:32:29;;;;;;;4.07;1.02;;;;;;;3.12;100.00;149451.81;13076781;22;20015;-82
2023/12/27 09:37:31;;;;;;;2.72;1.50;;;;;;;3.31;100.00;149500.56;13049152;22;20019;-82
2023/12/27 09:42:33;;;;;;;1.85;1.25;;;;;;;3.40;100.00;149522.41;13046638;22;20019;-82
2023/12/27 09:47:37;;;;;;;5.60;1.40;;;;;;;3.80;100.00;149625.13;13046098;22;20045;-83
2023/12/27 09:52:43;;;;;;;5.03;1.83;;;;;;;3.88;98.37;149643.13;13068643;22;20022;-80
2023/12/27 09:57:48;;;;;;;3.17;1.52;;;;;;;4.24;95.76;149734.31;13044392;22;20042;-80
2023/12/27 10:02:54;;;;;;;4.40;1.60;;;;;;;4.23;97.31;149731.75;13067999;22;20066;-81
2023/12/27 10:07:56;;;;;;;2.28;1.42;;;;;;;4.10;97.74;149698.34;13075457;22;20047;-82
2023/12/27 10:13:02;;;;;;;4.75;1.83;;;;;;;4.12;97.22;149703.47;13044500;22;20019;-80
2023/12/27 10:18:04;;;;;;;6.30;2.00;;;;;;;4.22;97.34;149729.19;13076644;22;20022;-81
2023/12/27 10:23:06;;;;;;;3.65;1.70;;;;;;;4.50;95.33;149801.13;13086806;22;20558;-81
2023/12/27 10:28:09;;;;;;;3.50;1.90;;;;;;;4.65;95.24;149838.44;13071477;22;20022;-81
2023/12/27 10:33:10;;;;;;;3.13;1.80;;;;;;;4.64;95.44;149835.81;13072630;22;20416;-82
2023/12/27 10:38:18;;;;;;;4.30;2.08;;;;;;;4.73;96.13;149857.66;13083943;22;20015;-80
2023/12/27 10:43:24;;;;;;;3.65;2.13;;;;;;;4.76;95.21;149866.66;13045932;22;20042;-81
2023/12/27 10:48:33;;;;;;;3.63;1.98;;;;;;;4.84;95.87;149885.97;13046409;22;20016;-80
2023/12/27 10:53:36;;;;;;;2.88;2.03;;;;;;;5.13;92.97;149959.22;13073872;22;20064;-80
2023/12/27 10:58:42;;;;;;;10.35;2.53;;;;;;;4.90;94.91;149900.09;13079547;22;20011;-81
2023/12/27 11:03:49;;;;;;;3.92;2.53;;;;;;;5.07;95.79;149945.09;13076660;22;20016;-80
2023/12/27 11:08:52;;;;;;;5.82;3.17;;;;;;;5.36;94.25;150017.13;13072129;22;20050;-81
2023/12/27 11:13:57;;;;;;;2.58;2.00;;;;;;;6.29;90.98;150252.56;13076177;22;20019;-81
2023/12/27 11:18:59;;;;;;;7.50;1.63;;;;;;;8.09;78.62;150705.84;13044698;22;20018;-80
2023/12/27 11:24:05;;;;;;;2.75;1.35;;;;;;;10.27;66.57;151258.00;13072451;22;20080;-81
2023/12/27 11:29:11;;;;;;;8.13;1.80;;;;;;;11.14;65.16;151476.22;13066612;22;20068;-81
2023/12/27 11:34:13;;;;;;;2.70;1.38;;;;;;;11.57;62.16;151587.31;13066446;22;20341;-82
2023/12/27 11:39:23;;;;;;;2.28;1.27;;;;;;;11.84;57.64;151655.84;13065935;22;20392;-81
2023/12/27 11:44:41;;;;;;;2.17;1.30;;;;;;;10.88;61.77;151411.63;13068697;22;20019;-81
2023/12/27 11:50:10;;;;;;;1.88;1.00;;;;;;;10.31;63.78;151267.00;13102980;22;19999;-80
2023/12/27 11:55:17;;;;;;;6.35;1.00;;;;;;;9.14;66.60;150971.50;13101645;22;20046;-78
2023/12/27 12:00:30;;;;;;;2.38;1.10;;;;;;;8.76;68.97;150876.03;13113198;22;20091;-79
2023/12/27 12:05:53;;;;;;;4.25;1.00;;;;;;;8.67;70.33;150852.84;13114534;22;20039;-79
2023/12/27 12:11:12;;;;;;;4.90;1.00;;;;;;;8.26;70.53;150749.66;13087477;22;20015;-80
2023/12/27 12:16:14;;;;;;;2.40;1.20;;;;;;;7.95;72.28;150671.06;13113045;22;19999;-80
2023/12/27 12:21:15;;;;;;;1.80;1.00;;;;;;;7.57;74.85;150575.75;13113471;22;19995;-79
2023/12/27 12:26:17;;;;;;;3.83;0.98;;;;;;;7.29;76.46;150504.88;13113778;22;20019;-80
2023/12/27 12:31:19;;;;;;;1.52;0.80;;;;;;;7.22;77.20;150485.59;13113697;22;20015;-79
2023/12/27 12:36:21;;;;;;;1.13;0.70;;;;;;;7.27;76.69;150499.75;13110593;22;20031;-80
2023/12/27 12:41:23;;;;;;;1.73;0.90;;;;;;;7.27;77.57;150498.47;13111388;22;20138;-81
2023/12/27 12:46:26;;;;;;;1.48;0.63;;;;;;;6.94;77.45;150416.00;13084653;22;19995;-83
2023/12/27 12:51:27;;;;;;;1.48;0.88;;;;;;;7.13;77.13;150463.69;13082583;22;20015;-83
2023/12/27 12:56:30;;;;;;;1.58;1.00;;;;;;;6.81;79.32;150382.53;13095862;22;20450;-82
2023/12/27 13:01:32;;;;;;;3.28;1.55;;;;;;;7.05;77.19;150444.38;13091086;22;20019;-82
2023/12/27 13:06:34;;;;;;;1.30;0.80;;;;;;;6.88;77.53;150400.59;13061549;22;20016;-81
2023/12/27 13:11:40;;;;;;;0.97;0.70;;;;;;;6.85;77.92;150392.84;13060060;22;20019;-82
2023/12/27 13:16:42;;;;;;;1.70;0.90;;;;;;;6.95;77.00;150417.28;13048362;22;20067;-81
2023/12/27 13:21:44;;;;;;;3.45;1.00;;;;;;;6.64;79.00;150338.75;13095119;22;20019;-80
2023/12/27 13:26:45;;;;;;;3.40;0.88;;;;;;;6.45;80.61;150292.44;13050077;22;20441;-80
2023/12/27 13:31:48;;;;;;;2.20;0.70;;;;;;;6.36;80.21;150268.00;13071789;22;20023;-82
2023/12/27 13:36:50;;;;;;;0.82;0.50;;;;;;;6.68;79.33;150350.34;13045310;22;20445;-81
2023/12/27 13:41:54;;;;;;;1.40;0.80;;;;;;;6.67;79.02;150347.78;13073435;22;20019;-82
2023/12/27 13:46:57;;;;;;;1.92;0.80;;;;;;;6.79;78.57;150378.69;13070658;22;20018;-82
2023/12/27 13:51:59;;;;;;;2.55;0.93;;;;;;;6.69;78.86;150351.69;13072286;22;20020;-82
2023/12/27 13:57:01;;;;;;;2.08;0.73;;;;;;;6.45;80.75;150292.44;13047476;22;20015;-81
2023/12/27 14:02:03;;;;;;;4.28;1.10;;;;;;;6.79;78.84;150378.69;13073448;22;20472;-82
2023/12/27 14:07:05;;;;;;;2.72;1.08;;;;;;;6.52;81.49;150310.47;13073451;22;20019;-79
2023/12/27 14:12:07;;;;;;;2.42;0.80;;;;;;;6.49;82.12;150301.47;13081601;22;20019;-81
2023/12/27 14:17:10;;;;;;;1.98;1.00;;;;;;;6.61;81.89;150332.34;13072621;22;20011;-80
2023/12/27 14:22:12;;;;;;;5.05;0.90;;;;;;;6.73;81.88;150361.94;13046038;22;20457;-81
2023/12/27 14:27:13;;;;;;;4.60;1.00;;;;;;;6.62;82.63;150334.91;13071830;22;20026;-82
2023/12/27 14:32:15;;;;;;;3.05;1.00;;;;;;;6.79;82.04;150378.69;13068532;22;20015;-82
2023/12/27 14:37:17;;;;;;;5.22;1.98;;;;;;;6.54;83.77;150315.59;13044732;22;20116;-82
2023/12/27 14:42:19;;;;;;;1.63;1.23;;;;;;;6.57;84.01;150323.34;13072066;22;20015;-80
2023/12/27 14:47:23;;;;;;;2.97;1.50;;;;;;;6.46;84.55;150295.03;13079548;22;20046;-81
2023/12/27 14:52:24;;;;;;;5.05;1.60;;;;;;;6.30;86.17;150255.13;13069307;22;20068;-82
2023/12/27 14:57:26;;;;;;;2.72;1.30;;;;;;;6.21;86.49;150230.69;13040879;22;20011;-80
2023/12/27 15:02:28;;;;;;;2.85;1.25;;;;;;;6.05;87.76;150190.78;13068298;22;20015;-82
2023/12/27 15:07:30;;;;;;;3.83;2.00;;;;;;;6.14;87.25;150213.94;13070449;22;20038;-83
2023/12/27 15:12:31;;;;;;;3.33;1.67;;;;;;;6.03;88.47;150185.66;13073107;22;20524;-82
2023/12/27 15:17:33;;;;;;;3.28;1.50;;;;;;;5.93;89.39;150159.91;13070491;22;20022;-81
2023/12/27 15:22:35;;;;;;;3.35;1.60;;;;;;;5.83;89.91;150136.69;13066274;22;20094;-83
2023/12/27 15:27:39;;;;;;;2.45;1.88;;;;;;;5.81;89.43;150130.28;13071806;22;20022;-83
2023/12/27 15:32:42;;;;;;;3.30;1.65;;;;;;;6.29;84.93;150251.28;13067681;22;20019;-82
2023/12/27 15:37:43;;;;;;;2.97;1.52;;;;;;;6.30;84.31;150255.13;13045567;22;20015;-80
2023/12/27 15:42:45;;;;;;;2.38;1.25;;;;;;;6.30;83.66;150255.13;13077633;22;20071;-80
2023/12/27 15:47:49;;;;;;;3.53;1.48;;;;;;;6.22;83.40;150234.53;13075650;22;20019;-82
2023/12/27 15:52:51;;;;;;;5.80;1.73;;;;;;;6.20;83.68;150229.41;13083420;22;20015;-81
2023/12/27 15:57:53;;;;;;;3.35;1.75;;;;;;;6.09;84.14;150199.81;13084657;22;20015;-82
2023/12/27 16:02:55;;;;;;;6.70;2.17;;;;;;;5.97;84.36;150171.47;13081934;22;20349;-83
2023/12/27 16:07:57;;;;;;;5.75;1.80;;;;;;;5.93;84.91;150159.91;13076540;22;20016;-81
2023/12/27 16:12:59;;;;;;;2.83;1.27;;;;;;;5.86;85.38;150143.16;13090379;22;20022;-82
2023/12/27 16:18:01;;;;;;;2.97;1.50;;;;;;;5.76;85.90;150117.44;13051985;22;20040;-81
2023/12/27 16:23:03;;;;;;;4.32;2.13;;;;;;;6.15;83.58;150215.22;13082579;22;20023;-80
2023/12/27 16:28:06;;;;;;;3.08;1.95;;;;;;;6.02;84.29;150183.03;13081612;22;20472;-82
2023/12/27 16:33:07;;;;;;;3.78;1.95;;;;;;;6.00;84.90;150177.94;13049941;22;20037;-80
2023/12/27 16:38:10;;;;;;;5.30;2.50;;;;;;;5.75;86.77;150114.81;13079638;22;20015;-83
2023/12/27 16:43:19;;;;;;;7.18;2.45;;;;;;;5.85;87.40;150139.31;13078086;22;20429;-81
2023/12/27 16:48:22;;;;;;;4.78;3.20;;;;;;;5.75;87.92;150116.09;13076105;22;20049;-81
2023/12/27 16:53:25;;;;;;;5.03;2.42;;;;;;;5.68;88.86;150096.84;13073519;22;20075;-81
2023/12/27 16:58:26;;;;;;;3.40;2.85;;;;;;;5.69;89.53;150099.41;13046727;22;20042;-83
2023/12/27 17:03:29;;;;;;;5.38;3.28;;;;;;;5.62;90.22;150081.38;13049953;22;20033;-82
2023/12/27 17:08:31;;;;;;;5.75;3.53;;;;;;;5.54;91.65;150063.41;13000014;22;20019;-82
2023/12/27 17:13:34;;;;;;;5.60;3.28;;;;;;;5.29;94.26;149999.09;13077895;22;20075;-82
2023/12/27 17:18:36;;;;;;;5.18;3.30;;;;;;;5.55;92.17;150065.97;13073965;22;20019;-83
2023/12/27 17:23:38;;;;;;;6.28;3.63;;;;;;;5.50;92.89;150053.13;13073837;22;20038;-82
2023/12/27 17:28:40;;;;;;;5.40;3.38;;;;;;;5.47;93.31;150045.38;13067528;22;20425;-83
2023/12/27 17:33:42;;;;;;;8.10;4.45;;;;;;;5.63;92.30;150084.00;13067515;22;20015;-81
2023/12/27 17:38:44;;;;;;;5.93;3.65;;;;;;;5.36;94.50;150017.13;13086238;22;20020;-82
2023/12/27 17:43:45;;;;;;;8.27;3.90;;;;;;;5.58;93.05;150072.41;13040665;22;20345;-82
2023/12/27 17:48:47;;;;;;;5.15;4.28;;;;;;;5.47;93.88;150045.38;13066722;22;20510;-82
2023/12/27 17:53:49;;;;;;;6.25;3.63;;;;;;;5.45;94.11;150038.97;13038353;22;20094;-82
2023/12/27 17:58:51;;;;;;;4.97;3.50;;;;;;;5.19;95.82;149974.66;13066013;22;20015;-81
2023/12/27 18:03:53;;;;;;;4.72;3.83;;;;;;;4.98;97.70;149921.94;13080565;22;20470;-81
2023/12/27 18:08:56;;;;;;;5.88;3.28;;;;;;;5.10;96.30;149950.25;13091037;22;20015;-81
2023/12/27 18:13:57;;;;;;;4.20;3.45;;;;;;;5.18;96.66;149970.78;13075127;22;20067;-82
2023/12/27 18:19:01;;;;;;;5.78;3.35;;;;;;;5.23;95.77;149984.97;13067927;22;20037;-82
2023/12/27 18:24:03;;;;;;;3.97;3.13;;;;;;;5.40;94.79;150026.06;13067967;22;20015;-83
2023/12/27 18:29:05;;;;;;;4.75;3.63;;;;;;;5.42;94.27;150031.25;13083089;22;20012;-81
2023/12/27 18:34:07;;;;;;;10.13;4.25;;;;;;;5.20;95.83;149975.94;13074929;22;20460;-83
2023/12/27 18:39:10;;;;;;;5.32;3.83;;;;;;;5.02;97.31;149932.25;13072799;22;20090;-81
2023/12/27 18:44:12;;;;;;;4.35;3.88;;;;;;;4.92;97.97;149906.53;13072594;22;20015;-82
2023/12/27 18:49:14;;;;;;;5.07;2.97;;;;;;;4.98;97.10;149921.94;13044026;22;20027;-82
2023/12/27 18:54:16;;;;;;;6.82;4.20;;;;;;;4.70;99.19;149850.00;13071489;22;20041;-83
2023/12/27 18:59:18;;;;;;;5.45;4.00;;;;;;;4.85;99.42;149888.53;13071667;22;20015;-83
2023/12/27 19:04:20;;;;;;;5.00;3.60;;;;;;;4.72;100.00;149855.09;13073599;22;20023;-83
2023/12/27 19:09:22;;;;;;;5.22;3.58;;;;;;;4.58;100.00;149819.13;13081565;22;20160;-82
2023/12/27 19:14:24;;;;;;;8.50;3.92;;;;;;;4.53;100.00;149807.56;13024728;22;20465;-84
2023/12/27 19:19:27;;;;;;;5.05;3.67;;;;;;;4.44;100.00;149785.72;13051416;22;20015;-83
2023/12/27 19:24:30;;;;;;;5.97;3.75;;;;;;;4.34;100.00;149760.03;13025351;22;20080;-83
2023/12/27 19:29:32;;;;;;;7.53;4.05;;;;;;;4.53;100.00;149807.56;13076870;22;20037;-83
2023/12/27 19:34:37;;;;;;;12.35;4.25;;;;;;;4.58;100.00;149820.41;13050500;22;20038;-83
2023/12/27 19:39:41;;;;;;;5.25;4.07;;;;;;;4.68;100.00;149846.09;13053397;22;20040;-83
2023/12/27 19:44:44;;;;;;;7.68;4.03;;;;;;;4.72;100.00;149855.09;13092044;22;20015;-84
2023/12/27 19:49:46;;;;;;;4.65;3.13;;;;;;;5.08;98.65;149946.38;13097036;22;20035;-83
2023/12/27 19:54:49;;;;;;;6.15;3.78;;;;;;;5.06;98.36;149941.25;13092124;22;20015;-83
2023/12/27 19:59:51;;;;;;;4.53;3.75;;;;;;;5.11;97.67;149954.09;13055690;22;20011;-84
2023/12/27 20:04:53;;;;;;;5.00;3.33;;;;;;;4.90;98.52;149901.38;13081886;22;20437;-83
2023/12/27 20:09:55;;;;;;;8.40;4.55;;;;;;;4.67;100.00;149842.25;13054582;22;20008;-84
2023/12/27 20:14:59;;;;;;;5.07;3.42;;;;;;;4.73;100.00;149857.66;13031680;22;20019;-84
2023/12/27 20:20:01;;;;;;;3.70;3.05;;;;;;;4.62;100.00;149829.41;13055259;22;20011;-85
2023/12/27 20:25:03;;;;;;;5.07;3.35;;;;;;;4.91;98.81;149902.66;13079999;22;20023;-82
2023/12/27 20:30:07;;;;;;;3.58;2.92;;;;;;;4.68;99.97;149844.81;13081387;22;20065;-83
2023/12/27 20:35:09;;;;;;;4.78;3.55;;;;;;;4.61;100.00;149828.13;13092294;22;20031;-84
2023/12/27 20:40:11;;;;;;;5.43;3.45;;;;;;;4.61;99.98;149828.13;13078317;22;20030;-83
2023/12/27 20:45:14;;;;;;;4.60;3.05;;;;;;;4.62;99.93;149829.41;13076003;22;20019;-85
2023/12/27 20:50:17;;;;;;;3.60;2.40;;;;;;;4.36;100.00;149763.88;13049232;22;20011;-84
2023/12/27 20:55:19;;;;;;;6.22;3.05;;;;;;;4.45;99.94;149787.00;13078298;22;20026;-83
2023/12/27 21:00:21;;;;;;;5.85;3.40;;;;;;;4.13;100.00;149707.34;13079620;22;20488;-83
2023/12/27 21:05:24;;;;;;;6.30;3.45;;;;;;;4.00;100.00;149673.97;13078012;22;20346;-84
2023/12/27 21:10:26;;;;;;;6.18;3.70;;;;;;;4.05;100.00;149688.06;13075698;22;20014;-83
2023/12/27 21:15:28;;;;;;;5.68;3.30;;;;;;;4.00;100.00;149675.22;13086739;22;20015;-84
2023/12/27 21:20:30;;;;;;;5.05;3.15;;;;;;;4.04;100.00;149684.22;13078168;22;20011;-83
2023/12/27 21:25:32;;;;;;;3.97;2.45;;;;;;;3.95;100.00;149662.41;13081409;22;20023;-83
2023/12/27 21:30:34;;;;;;;5.78;2.75;;;;;;;3.93;100.00;149655.97;13103963;22;20015;-85
2023/12/27 21:35:36;;;;;;;3.25;2.35;;;;;;;4.08;100.00;149693.25;13083202;22;19999;-83
2023/12/27 21:40:38;;;;;;;4.38;3.05;;;;;;;4.24;99.86;149734.31;13110340;22;20007;-83
2023/12/27 21:45:41;;;;;;;3.90;2.42;;;;;;;4.09;100.00;149697.06;13107302;22;19999;-83
2023/12/27 21:50:43;;;;;;;4.55;2.47;;;;;;;3.93;100.00;149655.97;13106445;22;20074;-82
2023/12/27 21:55:44;;;;;;;4.78;2.67;;;;;;;3.81;100.00;149626.44;13074425;22;20156;-82
2023/12/27 22:00:46;;;;;;;3.25;2.20;;;;;;;3.98;100.00;149670.06;13108925;22;20014;-82
2023/12/27 22:05:48;;;;;;;5.75;1.95;;;;;;;4.17;100.00;149716.34;13104558;22;20067;-81
2023/12/27 22:10:50;;;;;;;6.00;2.38;;;;;;;4.45;99.93;149788.28;13108325;22;20011;-82
2023/12/27 22:15:52;;;;;;;3.70;2.20;;;;;;;4.18;100.00;149720.19;13082383;22;20011;-80
2023/12/27 22:21:04;;;;;;;3.28;2.25;;;;;;;4.40;98.27;149775.44;13110088;22;20000;-81
2023/12/27 22:26:06;;;;;;;7.15;3.03;;;;;;;4.44;98.57;149784.44;13111517;22;20014;-79
2023/12/27 22:31:07;;;;;;;4.20;2.25;;;;;;;4.20;97.81;149724.03;13108882;22;20025;-81
2023/12/27 22:36:10;;;;;;;4.85;1.90;;;;;;;4.28;98.89;149744.59;13107040;22;20022;-82
2023/12/27 22:41:11;;;;;;;3.67;2.20;;;;;;;4.25;97.93;149736.88;13102216;22;20059;-83
2023/12/27 22:46:13;;;;;;;5.07;3.13;;;;;;;3.90;100.00;149648.28;13107302;22;20023;-82
2023/12/27 22:51:15;;;;;;;4.90;2.30;;;;;;;4.01;98.98;149677.78;13111186;22;20015;-81
2023/12/27 22:56:17;;;;;;;3.55;2.90;;;;;;;3.89;100.00;149646.97;13111164;22;20067;-79
2023/12/27 23:01:19;;;;;;;5.20;2.88;;;;;;;4.20;100.00;149725.31;13083975;22;20007;-79
2023/12/27 23:06:20;;;;;;;6.82;2.35;;;;;;;4.28;100.00;149744.59;13108452;22;20004;-79
2023/12/27 23:11:22;;;;;;;5.57;2.65;;;;;;;4.32;98.96;149753.59;13100711;22;20452;-83
2023/12/27 23:16:24;;;;;;;4.95;2.55;;;;;;;4.25;98.42;149738.19;13077129;22;20000;-82
2023/12/27 23:21:26;;;;;;;4.13;2.85;;;;;;;3.93;100.00;149655.97;13108632;22;20026;-82